ADDS METAR Data INFO
IDs: Format: Raw Decoded Include TAF

Data at: 2237 UTC 11 Dec 2017

KCKV 112152Z AUTO 20017G23KT 10SM CLR 14/M03 A2980 RMK AO2 SLP093 T01441028
KCKV 112052Z AUTO 19014G22KT 10SM CLR 15/M03 A2984 RMK AO2 SLP107 T01501028 56054
KCKV 111952Z AUTO 23014G22KT 10SM CLR 14/M03 A2989 RMK AO2 SLP122 T01441033
KCKV 111852Z AUTO 22013KT 10SM CLR 14/M03 A2994 RMK AO2 SLP139 T01391028
KCKV 111752Z AUTO 21012G19KT 10SM CLR 12/M03 A3000 RMK AO2 SLP160 T01221028 10122 21033 58033
KCKV 111652Z AUTO 20011KT 10SM CLR 10/M02 A3007 RMK AO2 SLP181 T01001022
KCKV 111552Z AUTO 20010KT 10SM CLR 08/M02 A3009 RMK AO2 SLP192 T00781022
KCKV 111452Z AUTO 19006KT 10SM CLR 04/M02 A3010 RMK AO2 SLP195 T00441017 58006
KCKV 111352Z AUTO 17003KT 10SM CLR M01/M03 A3011 RMK AO2 SLP200 T10061028
KCKV 111252Z AUTO 13004KT 10SM CLR M03/M05 A3012 RMK AO2 SLP204 T10331050
KCKV 111152Z AUTO 14003KT 10SM CLR M03/M06 A3012 RMK AO2 SLP203 T10281056 10050 21033 58009
KCKV 111052Z AUTO 00000KT 10SM CLR M02/M05 A3014 RMK AO2 SLP209 T10171050
KCKV 110952Z AUTO 00000KT 10SM CLR M02/M05 A3013 RMK AO2 SLP207 T10171050
KCKV 110852Z AUTO 00000KT 10SM CLR M01/M05 A3015 RMK AO2 SLP211 T10111050 58003
KCKV 110752Z AUTO 00000KT 10SM CLR 01/M04 A3015 RMK AO2 SLP212 T00111044
KCKV 110652Z AUTO 30003KT 10SM CLR 04/M04 A3016 RMK AO2 SLP215 T00391044
KCKV 110552Z AUTO 24005KT 10SM CLR 05/M04 A3016 RMK AO2 SLP214 T00501044 10067 20044 400891072 51005
KCKV 110452Z AUTO 24005KT 10SM CLR 06/M04 A3015 RMK AO2 SLP211 T00561044
KCKV 110352Z AUTO 23007KT 10SM CLR 06/M06 A3015 RMK AO2 SLP213 T00561056
KCKV 110252Z AUTO 23005KT 10SM CLR 05/M06 A3014 RMK AO2 SLP211 T00501061 51009
KCKV 110152Z AUTO 22004KT 10SM CLR 05/M07 A3013 RMK AO2 SLP207 T00501067
KCKV 110052Z AUTO 21005KT 10SM CLR 05/M07 A3013 RMK AO2 SLP208 T00501067
KCKV 102352Z AUTO 23003KT 10SM CLR 07/M07 A3012 RMK AO2 SLP202 T00671072 10089 20056 53009
KCKV 102252Z AUTO 22008KT 10SM CLR 07/M07 A3009 RMK AO2 SLP193 T00721067
KCKV 102152Z AUTO 22014G20KT 10SM CLR 08/M07 A3008 RMK AO2 SLP189 T00831072
KCKV 102052Z AUTO 21011G19KT 10SM CLR 09/M07 A3009 RMK AO2 SLP193 T00891072 56028
KCKV 101952Z AUTO 20012KT 10SM CLR 08/M07 A3011 RMK AO2 SLP200 T00831072
KCKV 101852Z AUTO 19014KT 10SM CLR 07/M07 A3014 RMK AO2 SLP209 T00721072
KCKV 101752Z AUTO 22011KT 10SM CLR 06/M07 A3017 RMK AO2 SLP221 T00561067 10056 21072 58020
KCKV 101652Z AUTO 24012G19KT 10SM CLR 04/M07 A3022 RMK AO2 SLP237 T00391067
KCKV 101552Z AUTO 21009KT 10SM CLR 02/M07 A3024 RMK AO2 SLP243 T00171067
KCKV 101452Z AUTO 21010KT 10SM CLR M01/M07 A3023 RMK AO2 SLP243 T10061067 58005
KCKV 101352Z AUTO 21006KT 10SM CLR M03/M07 A3026 RMK AO2 SLP251 T10281067
KCKV 101252Z AUTO 21004KT 10SM CLR M06/M09 A3025 RMK AO2 SLP251 T10561089
KCKV 101152Z AUTO 23003KT 10SM CLR M05/M09 A3025 RMK AO2 SLP249 T10501089 11017 21072 53006
KCKV 101052Z AUTO 25003KT 10SM CLR M06/M09 A3024 RMK AO2 SLP246 T10561094